Time;durP1;ratioP1;P1;durP2;ratioP2;P2;SDS_P1;SDS_P2;PMS_P1;PMS_P2;Temp;Humidity;BMP_temperature;BMP_pressure;BME280_temperature;BME280_humidity;BME280_pressure;Samples;Min_cycle;Max_cycle;Signal;HPM_P1;HPM_P2
2023/03/07 02:16:19;;;;;;;20.63;8.57;;;;;;;;;;6148112;23;20212;-94
2023/03/07 02:23:48;;;;;;;23.67;9.47;;;;;;;;;;6173626;23;20177;-95
2023/03/07 02:26:55;;;;;;;20.90;9.17;;;;;;;;;;6156314;23;20226;-92
2023/03/07 02:30:01;;;;;;;20.97;8.63;;;;;;;;;;6154738;23;20164;-93
2023/03/07 02:33:06;;;;;;;21.07;8.53;;;;;;;;;;6154671;23;20182;-94
2023/03/07 02:36:15;;;;;;;18.77;7.83;;;;;;;;;;6153122;23;20233;-92
2023/03/07 02:39:29;;;;;;;20.20;8.73;;;;;;;;;;6154272;23;20173;-93
2023/03/07 02:42:39;;;;;;;27.13;9.17;;;;;;;;;;6154857;23;20244;-92
2023/03/07 02:45:49;;;;;;;24.47;9.63;;;;;;;;;;6153795;23;20172;-93
2023/03/07 02:48:55;;;;;;;20.90;8.60;;;;;;;;;;6154507;23;20196;-93
2023/03/07 02:52:01;;;;;;;19.60;8.43;;;;;;;;;;6153958;23;20619;-91
2023/03/07 02:55:08;;;;;;;21.50;8.67;;;;;;;;;;6155025;23;20232;-94
2023/03/07 02:58:18;;;;;;;23.20;8.80;;;;;;;;;;6155919;23;20152;-93
2023/03/07 03:05:37;;;;;;;25.27;9.77;;;;;;;;;;6172762;23;20161;-93
2023/03/07 03:08:42;;;;;;;23.80;9.43;;;;;;;;;;6154706;23;20619;-94
2023/03/07 03:11:48;;;;;;;26.63;9.93;;;;;;;;;;6152305;23;20200;-94
2023/03/07 03:14:56;;;;;;;24.37;9.60;;;;;;;;;;6152081;23;20296;-91
2023/03/07 03:18:02;;;;;;;26.50;9.17;;;;;;;;;;6150491;23;20168;-91
2023/03/07 03:25:03;;;;;;;29.67;10.27;;;;;;;;;;6151071;23;20153;-93
2023/03/07 03:28:08;;;;;;;25.60;9.30;;;;;;;;;;6151188;23;20167;-94
2023/03/07 03:31:16;;;;;;;24.53;9.87;;;;;;;;;;6150823;23;20163;-91
2023/03/07 03:34:22;;;;;;;23.27;9.97;;;;;;;;;;6150688;23;20219;-91
2023/03/07 03:37:29;;;;;;;27.00;10.73;;;;;;;;;;6151022;23;20247;-92
2023/03/07 03:40:34;;;;;;;23.50;10.27;;;;;;;;;;6149978;23;20545;-94
2023/03/07 03:43:39;;;;;;;24.33;10.23;;;;;;;;;;6166717;23;20226;-93
2023/03/07 03:46:45;;;;;;;24.10;9.43;;;;;;;;;;6150582;23;20171;-91
2023/03/07 03:49:50;;;;;;;26.43;9.93;;;;;;;;;;6150918;23;20180;-92
2023/03/07 03:52:55;;;;;;;26.70;9.67;;;;;;;;;;6150398;23;20173;-93
2023/03/07 03:56:04;;;;;;;25.47;10.07;;;;;;;;;;6152298;23;20171;-92
2023/03/07 03:59:09;;;;;;;25.77;9.90;;;;;;;;;;6149752;23;20173;-93
2023/03/07 04:02:32;;;;;;;30.67;10.33;;;;;;;;;;6150676;23;20175;-92
2023/03/07 04:05:37;;;;;;;27.70;10.80;;;;;;;;;;6151642;23;20148;-95
2023/03/07 04:08:45;;;;;;;27.00;10.80;;;;;;;;;;6167949;23;20172;-94
2023/03/07 04:11:50;;;;;;;25.53;9.90;;;;;;;;;;6150854;23;20209;-94
2023/03/07 04:14:55;;;;;;;27.07;10.80;;;;;;;;;;6149074;23;20224;-94
2023/03/07 04:18:03;;;;;;;29.40;11.80;;;;;;;;;;6148993;23;20213;-93
2023/03/07 04:25:03;;;;;;;29.30;10.43;;;;;;;;;;6156178;23;20192;-92
2023/03/07 04:28:09;;;;;;;26.40;9.67;;;;;;;;;;6154260;23;20192;-88
2023/03/07 04:31:15;;;;;;;28.50;11.03;;;;;;;;;;6152437;23;20167;-91
2023/03/07 04:34:24;;;;;;;27.73;11.20;;;;;;;;;;6153073;23;20172;-92
2023/03/07 04:37:29;;;;;;;29.57;11.17;;;;;;;;;;6171859;23;20289;-94
2023/03/07 04:40:34;;;;;;;29.07;10.87;;;;;;;;;;6153666;23;20169;-94
2023/03/07 04:43:40;;;;;;;24.13;10.13;;;;;;;;;;6168489;23;20172;-91
2023/03/07 04:46:45;;;;;;;23.60;9.90;;;;;;;;;;6151779;23;20205;-93
2023/03/07 04:49:51;;;;;;;28.33;10.40;;;;;;;;;;6150020;23;20621;-92
2023/03/07 04:52:56;;;;;;;28.30;10.53;;;;;;;;;;6151187;23;20172;-93
2023/03/07 04:56:03;;;;;;;27.50;11.23;;;;;;;;;;6152685;23;20176;-92
2023/03/07 04:59:09;;;;;;;28.40;10.63;;;;;;;;;;6153878;23;20656;-93
2023/03/07 05:02:33;;;;;;;29.73;10.77;;;;;;;;;;6169679;23;20196;-91
2023/03/07 05:05:41;;;;;;;34.00;10.73;;;;;;;;;;6154106;23;20507;-92
2023/03/07 05:08:47;;;;;;;28.20;10.70;;;;;;;;;;6153367;23;20193;-91
2023/03/07 05:11:52;;;;;;;26.57;10.50;;;;;;;;;;6156714;23;20224;-92
2023/03/07 05:15:01;;;;;;;25.83;10.27;;;;;;;;;;6155955;23;20164;-92
2023/03/07 05:18:06;;;;;;;29.83;10.73;;;;;;;;;;6173007;23;20160;-90
2023/03/07 05:21:18;;;;;;;35.50;11.83;;;;;;;;;;6171685;23;20169;-92
2023/03/07 05:24:25;;;;;;;30.73;11.30;;;;;;;;;;6155532;23;20177;-90
2023/03/07 05:27:30;;;;;;;32.90;11.70;;;;;;;;;;6156928;23;20547;-91
2023/03/07 05:30:35;;;;;;;34.63;11.90;;;;;;;;;;6155043;23;20184;-91
2023/03/07 05:33:41;;;;;;;28.93;11.87;;;;;;;;;;6155226;23;20156;-94
2023/03/07 05:36:47;;;;;;;30.20;10.57;;;;;;;;;;6155956;23;20168;-93
2023/03/07 05:39:55;;;;;;;33.53;12.47;;;;;;;;;;6155414;23;20246;-93
2023/03/07 05:43:01;;;;;;;25.53;10.97;;;;;;;;;;6154122;23;20197;-92
2023/03/07 05:46:07;;;;;;;31.93;11.90;;;;;;;;;;6156178;23;20251;-91
2023/03/07 05:49:13;;;;;;;32.60;11.47;;;;;;;;;;6158409;23;20204;-93
2023/03/07 05:52:19;;;;;;;24.73;11.07;;;;;;;;;;6156370;23;20212;-91
2023/03/07 05:55:27;;;;;;;31.40;11.53;;;;;;;;;;6157806;23;20173;-93
2023/03/07 05:58:34;;;;;;;34.77;13.73;;;;;;;;;;6159154;23;20172;-94
2023/03/07 06:05:29;;;;;;;34.67;12.33;;;;;;;;;;6159416;23;20157;-91
2023/03/07 06:08:35;;;;;;;41.27;12.37;;;;;;;;;;6172672;23;20165;-93
2023/03/07 06:11:56;;;;;;;29.10;11.90;;;;;;;;;;6158259;23;20169;-93
2023/03/07 06:15:04;;;;;;;36.03;11.93;;;;;;;;;;6156848;23;20198;-93
2023/03/07 06:18:24;;;;;;;39.67;12.93;;;;;;;;;;6157753;23;20172;-91
2023/03/07 06:21:47;;;;;;;34.73;11.93;;;;;;;;;;6175639;23;20153;-93
2023/03/07 06:28:17;;;;;;;31.77;11.67;;;;;;;;;;6160073;23;20196;-92
2023/03/07 23:06:12;;;;;;;23.00;9.13;;;;;;;;;;6151923;23;20245;-92
2023/03/07 23:09:18;;;;;;;25.17;10.03;;;;;;;;;;6152893;23;20176;-92
2023/03/07 23:12:23;;;;;;;21.77;9.87;;;;;;;;;;6152679;23;20149;-91
2023/03/07 23:15:28;;;;;;;24.70;9.83;;;;;;;;;;6152117;23;20185;-93
2023/03/07 23:18:34;;;;;;;22.10;9.40;;;;;;;;;;6152069;23;20177;-93
2023/03/07 23:21:40;;;;;;;21.10;9.33;;;;;;;;;;6151842;23;20164;-93
2023/03/07 23:24:45;;;;;;;27.57;10.30;;;;;;;;;;6150926;23;20169;-90
2023/03/07 23:27:51;;;;;;;20.93;9.10;;;;;;;;;;6153007;23;20172;-92
2023/03/07 23:30:56;;;;;;;22.43;8.97;;;;;;;;;;6153280;23;20288;-90
2023/03/07 23:34:02;;;;;;;24.20;10.37;;;;;;;;;;6152046;23;20225;-91
2023/03/07 23:37:09;;;;;;;27.57;10.37;;;;;;;;;;6153353;23;20188;-94
2023/03/07 23:40:14;;;;;;;24.43;10.03;;;;;;;;;;6150896;23;20168;-91
2023/03/07 23:43:20;;;;;;;22.47;10.27;;;;;;;;;;6168254;23;20229;-90
2023/03/07 23:46:26;;;;;;;26.67;10.20;;;;;;;;;;6153987;23;20173;-91
2023/03/07 23:49:31;;;;;;;24.57;9.50;;;;;;;;;;6171071;23;20226;-90
2023/03/07 23:52:38;;;;;;;25.33;10.07;;;;;;;;;;6154566;23;20184;-92
2023/03/07 23:55:44;;;;;;;24.90;9.27;;;;;;;;;;6169529;23;20623;-91
2023/03/07 23:58:52;;;;;;;22.30;9.53;;;;;;;;;;6152894;23;20152;-92
